sensor_id;sensor_type;location;lat;lon;timestamp;P1;durP1;ratioP1;P2;durP2;ratioP2
59458;SDS011;45269;43.568;22.244;2022-07-10T00:02:15;15.77;;;11.77;;
59458;SDS011;45269;43.568;22.244;2022-07-10T00:04:41;15.48;;;11.82;;
59458;SDS011;45269;43.568;22.244;2022-07-10T00:07:06;12.73;;;11.48;;
59458;SDS011;45269;43.568;22.244;2022-07-10T00:09:31;14.40;;;12.90;;
59458;SDS011;45269;43.568;22.244;2022-07-10T00:11:57;16.52;;;12.55;;
59458;SDS011;45269;43.568;22.244;2022-07-10T00:14:22;13.85;;;12.55;;
59458;SDS011;45269;43.568;22.244;2022-07-10T00:16:48;13.68;;;12.38;;
59458;SDS011;45269;43.568;22.244;2022-07-10T00:19:13;13.18;;;12.07;;
59458;SDS011;45269;43.568;22.244;2022-07-10T00:21:38;16.90;;;11.80;;
59458;SDS011;45269;43.568;22.244;2022-07-10T00:24:04;12.70;;;11.65;;
59458;SDS011;45269;43.568;22.244;2022-07-10T00:26:29;12.63;;;11.23;;
59458;SDS011;45269;43.568;22.244;2022-07-10T00:28:55;11.73;;;10.73;;
59458;SDS011;45269;43.568;22.244;2022-07-10T00:31:20;11.70;;;10.60;;
59458;SDS011;45269;43.568;22.244;2022-07-10T00:33:46;11.52;;;10.43;;
59458;SDS011;45269;43.568;22.244;2022-07-10T00:36:12;12.05;;;11.07;;
59458;SDS011;45269;43.568;22.244;2022-07-10T00:38:38;12.45;;;11.15;;
59458;SDS011;45269;43.568;22.244;2022-07-10T00:41:03;14.35;;;11.00;;
59458;SDS011;45269;43.568;22.244;2022-07-10T00:43:29;12.88;;;10.55;;
59458;SDS011;45269;43.568;22.244;2022-07-10T00:45:54;12.30;;;11.10;;
59458;SDS011;45269;43.568;22.244;2022-07-10T00:48:19;12.63;;;11.50;;
59458;SDS011;45269;43.568;22.244;2022-07-10T00:50:45;12.13;;;11.13;;
59458;SDS011;45269;43.568;22.244;2022-07-10T00:53:11;12.88;;;11.85;;
59458;SDS011;45269;43.568;22.244;2022-07-10T00:55:37;16.58;;;12.95;;
59458;SDS011;45269;43.568;22.244;2022-07-10T00:58:05;15.32;;;13.93;;
59458;SDS011;45269;43.568;22.244;2022-07-10T01:00:31;13.27;;;11.90;;
59458;SDS011;45269;43.568;22.244;2022-07-10T01:02:57;12.75;;;11.43;;
59458;SDS011;45269;43.568;22.244;2022-07-10T01:05:22;12.07;;;10.98;;
59458;SDS011;45269;43.568;22.244;2022-07-10T01:07:48;11.80;;;10.65;;
59458;SDS011;45269;43.568;22.244;2022-07-10T01:10:13;13.18;;;11.88;;
59458;SDS011;45269;43.568;22.244;2022-07-10T01:12:38;13.20;;;12.00;;
59458;SDS011;45269;43.568;22.244;2022-07-10T01:15:04;13.40;;;12.07;;
59458;SDS011;45269;43.568;22.244;2022-07-10T01:17:30;13.73;;;12.52;;
59458;SDS011;45269;43.568;22.244;2022-07-10T01:19:55;13.20;;;12.02;;
59458;SDS011;45269;43.568;22.244;2022-07-10T01:22:21;13.15;;;11.98;;
59458;SDS011;45269;43.568;22.244;2022-07-10T01:24:46;14.60;;;12.88;;
59458;SDS011;45269;43.568;22.244;2022-07-10T01:27:11;14.20;;;13.00;;
59458;SDS011;45269;43.568;22.244;2022-07-10T01:29:37;14.05;;;12.75;;
59458;SDS011;45269;43.568;22.244;2022-07-10T01:32:02;15.00;;;12.80;;
59458;SDS011;45269;43.568;22.244;2022-07-10T01:34:28;15.75;;;12.32;;
59458;SDS011;45269;43.568;22.244;2022-07-10T01:36:53;12.20;;;11.10;;
59458;SDS011;45269;43.568;22.244;2022-07-10T01:39:19;14.25;;;12.23;;
59458;SDS011;45269;43.568;22.244;2022-07-10T01:41:44;12.35;;;11.27;;
59458;SDS011;45269;43.568;22.244;2022-07-10T01:44:09;12.57;;;11.45;;
59458;SDS011;45269;43.568;22.244;2022-07-10T01:46:35;12.65;;;11.40;;
59458;SDS011;45269;43.568;22.244;2022-07-10T01:49:00;12.48;;;11.32;;
59458;SDS011;45269;43.568;22.244;2022-07-10T01:51:25;13.60;;;12.18;;
59458;SDS011;45269;43.568;22.244;2022-07-10T01:53:51;13.85;;;12.40;;
59458;SDS011;45269;43.568;22.244;2022-07-10T01:56:16;13.60;;;12.48;;
59458;SDS011;45269;43.568;22.244;2022-07-10T01:58:42;13.00;;;11.80;;
59458;SDS011;45269;43.568;22.244;2022-07-10T02:01:07;13.68;;;12.50;;
59458;SDS011;45269;43.568;22.244;2022-07-10T02:03:33;11.85;;;10.65;;
59458;SDS011;45269;43.568;22.244;2022-07-10T02:06:17;12.80;;;11.52;;
59458;SDS011;45269;43.568;22.244;2022-07-10T02:08:43;12.40;;;11.30;;
59458;SDS011;45269;43.568;22.244;2022-07-10T02:11:08;12.05;;;10.98;;
59458;SDS011;45269;43.568;22.244;2022-07-10T02:13:34;11.80;;;10.80;;
59458;SDS011;45269;43.568;22.244;2022-07-10T02:15:59;15.98;;;10.18;;
59458;SDS011;45269;43.568;22.244;2022-07-10T02:18:24;13.10;;;10.55;;
59458;SDS011;45269;43.568;22.244;2022-07-10T02:20:51;13.98;;;10.75;;
59458;SDS011;45269;43.568;22.244;2022-07-10T02:23:16;12.55;;;11.07;;
59458;SDS011;45269;43.568;22.244;2022-07-10T02:25:42;11.43;;;10.32;;
59458;SDS011;45269;43.568;22.244;2022-07-10T02:28:08;11.80;;;10.77;;
59458;SDS011;45269;43.568;22.244;2022-07-10T02:30:33;11.35;;;10.20;;
59458;SDS011;45269;43.568;22.244;2022-07-10T02:32:58;13.00;;;10.40;;
59458;SDS011;45269;43.568;22.244;2022-07-10T02:35:24;11.93;;;10.43;;
59458;SDS011;45269;43.568;22.244;2022-07-10T02:37:49;10.70;;;9.80;;
59458;SDS011;45269;43.568;22.244;2022-07-10T02:40:15;11.70;;;10.48;;
59458;SDS011;45269;43.568;22.244;2022-07-10T02:42:40;10.82;;;9.80;;
59458;SDS011;45269;43.568;22.244;2022-07-10T02:45:06;11.95;;;10.27;;
59458;SDS011;45269;43.568;22.244;2022-07-10T02:47:31;10.95;;;9.88;;
59458;SDS011;45269;43.568;22.244;2022-07-10T02:49:57;12.05;;;10.95;;
59458;SDS011;45269;43.568;22.244;2022-07-10T02:52:22;11.95;;;10.48;;
59458;SDS011;45269;43.568;22.244;2022-07-10T02:54:47;10.63;;;9.63;;
59458;SDS011;45269;43.568;22.244;2022-07-10T02:57:13;11.27;;;10.00;;
59458;SDS011;45269;43.568;22.244;2022-07-10T02:59:38;10.93;;;10.07;;
59458;SDS011;45269;43.568;22.244;2022-07-10T03:02:04;10.10;;;9.30;;
59458;SDS011;45269;43.568;22.244;2022-07-10T03:04:29;12.70;;;10.18;;
59458;SDS011;45269;43.568;22.244;2022-07-10T03:06:54;11.40;;;10.23;;
59458;SDS011;45269;43.568;22.244;2022-07-10T03:09:20;10.57;;;9.52;;
59458;SDS011;45269;43.568;22.244;2022-07-10T03:11:45;11.25;;;10.20;;
59458;SDS011;45269;43.568;22.244;2022-07-10T03:14:10;10.80;;;9.55;;
59458;SDS011;45269;43.568;22.244;2022-07-10T03:16:36;11.75;;;9.52;;
59458;SDS011;45269;43.568;22.244;2022-07-10T03:19:01;11.85;;;10.30;;
59458;SDS011;45269;43.568;22.244;2022-07-10T03:21:27;10.98;;;9.02;;
59458;SDS011;45269;43.568;22.244;2022-07-10T03:23:52;9.20;;;8.40;;
59458;SDS011;45269;43.568;22.244;2022-07-10T03:26:18;12.52;;;11.27;;
59458;SDS011;45269;43.568;22.244;2022-07-10T03:28:43;11.82;;;10.50;;
59458;SDS011;45269;43.568;22.244;2022-07-10T03:31:08;11.40;;;10.30;;
59458;SDS011;45269;43.568;22.244;2022-07-10T03:33:34;10.70;;;9.45;;
59458;SDS011;45269;43.568;22.244;2022-07-10T03:35:59;10.57;;;8.77;;
59458;SDS011;45269;43.568;22.244;2022-07-10T03:38:26;9.23;;;8.43;;
59458;SDS011;45269;43.568;22.244;2022-07-10T03:40:52;8.88;;;8.18;;
59458;SDS011;45269;43.568;22.244;2022-07-10T03:43:17;10.55;;;8.98;;
59458;SDS011;45269;43.568;22.244;2022-07-10T03:45:42;10.18;;;8.80;;
59458;SDS011;45269;43.568;22.244;2022-07-10T03:48:08;9.82;;;8.93;;
59458;SDS011;45269;43.568;22.244;2022-07-10T03:50:33;9.38;;;8.57;;
59458;SDS011;45269;43.568;22.244;2022-07-10T03:52:59;9.25;;;8.38;;
59458;SDS011;45269;43.568;22.244;2022-07-10T03:55:24;9.65;;;8.75;;
59458;SDS011;45269;43.568;22.244;2022-07-10T03:57:49;9.60;;;8.70;;
59458;SDS011;45269;43.568;22.244;2022-07-10T04:00:28;9.55;;;8.45;;
59458;SDS011;45269;43.568;22.244;2022-07-10T04:02:54;13.68;;;8.65;;
59458;SDS011;45269;43.568;22.244;2022-07-10T04:05:20;9.10;;;8.30;;
59458;SDS011;45269;43.568;22.244;2022-07-10T04:07:45;10.50;;;9.10;;
59458;SDS011;45269;43.568;22.244;2022-07-10T04:10:11;9.45;;;8.60;;
59458;SDS011;45269;43.568;22.244;2022-07-10T04:12:36;11.57;;;9.23;;
59458;SDS011;45269;43.568;22.244;2022-07-10T04:15:01;16.02;;;9.00;;
59458;SDS011;45269;43.568;22.244;2022-07-10T04:17:27;10.52;;;8.80;;
59458;SDS011;45269;43.568;22.244;2022-07-10T04:19:52;9.68;;;8.65;;
59458;SDS011;45269;43.568;22.244;2022-07-10T04:22:17;9.07;;;7.57;;
59458;SDS011;45269;43.568;22.244;2022-07-10T04:24:43;8.65;;;7.85;;
59458;SDS011;45269;43.568;22.244;2022-07-10T04:27:08;8.13;;;7.35;;
59458;SDS011;45269;43.568;22.244;2022-07-10T04:29:33;8.20;;;7.22;;
59458;SDS011;45269;43.568;22.244;2022-07-10T04:31:59;12.60;;;8.23;;
59458;SDS011;45269;43.568;22.244;2022-07-10T04:34:24;7.82;;;7.13;;
59458;SDS011;45269;43.568;22.244;2022-07-10T04:36:50;8.43;;;7.20;;
59458;SDS011;45269;43.568;22.244;2022-07-10T04:39:15;9.45;;;7.25;;
59458;SDS011;45269;43.568;22.244;2022-07-10T04:41:40;8.02;;;7.13;;
59458;SDS011;45269;43.568;22.244;2022-07-10T04:44:06;8.32;;;6.80;;
59458;SDS011;45269;43.568;22.244;2022-07-10T04:46:31;7.68;;;7.07;;
59458;SDS011;45269;43.568;22.244;2022-07-10T04:48:56;8.10;;;6.80;;
59458;SDS011;45269;43.568;22.244;2022-07-10T04:51:22;7.05;;;6.45;;
59458;SDS011;45269;43.568;22.244;2022-07-10T04:53:48;7.32;;;6.63;;
59458;SDS011;45269;43.568;22.244;2022-07-10T04:56:13;9.05;;;6.97;;
59458;SDS011;45269;43.568;22.244;2022-07-10T04:58:39;10.50;;;7.40;;
59458;SDS011;45269;43.568;22.244;2022-07-10T05:01:04;7.57;;;6.97;;
59458;SDS011;45269;43.568;22.244;2022-07-10T05:03:30;11.60;;;7.25;;
59458;SDS011;45269;43.568;22.244;2022-07-10T05:05:55;7.53;;;6.78;;
59458;SDS011;45269;43.568;22.244;2022-07-10T05:08:20;8.27;;;7.47;;
59458;SDS011;45269;43.568;22.244;2022-07-10T05:10:45;9.82;;;7.47;;
59458;SDS011;45269;43.568;22.244;2022-07-10T05:13:11;10.68;;;7.20;;
59458;SDS011;45269;43.568;22.244;2022-07-10T05:15:37;8.90;;;7.22;;
59458;SDS011;45269;43.568;22.244;2022-07-10T05:18:03;8.15;;;7.25;;
59458;SDS011;45269;43.568;22.244;2022-07-10T05:20:28;8.07;;;7.32;;
59458;SDS011;45269;43.568;22.244;2022-07-10T05:22:53;16.70;;;7.80;;
59458;SDS011;45269;43.568;22.244;2022-07-10T05:25:19;8.05;;;7.20;;
59458;SDS011;45269;43.568;22.244;2022-07-10T05:27:44;7.97;;;6.95;;
59458;SDS011;45269;43.568;22.244;2022-07-10T05:30:10;7.57;;;6.82;;
59458;SDS011;45269;43.568;22.244;2022-07-10T05:32:41;11.43;;;6.90;;
59458;SDS011;45269;43.568;22.244;2022-07-10T05:35:07;8.43;;;7.10;;
59458;SDS011;45269;43.568;22.244;2022-07-10T05:37:33;6.70;;;6.10;;
59458;SDS011;45269;43.568;22.244;2022-07-10T05:39:58;7.68;;;6.18;;
59458;SDS011;45269;43.568;22.244;2022-07-10T05:42:23;7.47;;;6.40;;
59458;SDS011;45269;43.568;22.244;2022-07-10T05:44:49;6.72;;;6.22;;
59458;SDS011;45269;43.568;22.244;2022-07-10T05:47:14;8.40;;;5.97;;
59458;SDS011;45269;43.568;22.244;2022-07-10T05:49:39;8.57;;;5.10;;
59458;SDS011;45269;43.568;22.244;2022-07-10T05:52:05;6.20;;;4.97;;
59458;SDS011;45269;43.568;22.244;2022-07-10T05:54:30;5.78;;;5.15;;
59458;SDS011;45269;43.568;22.244;2022-07-10T05:56:55;6.03;;;5.30;;
59458;SDS011;45269;43.568;22.244;2022-07-10T05:59:21;6.13;;;5.20;;
59458;SDS011;45269;43.568;22.244;2022-07-10T06:01:46;7.45;;;5.32;;
59458;SDS011;45269;43.568;22.244;2022-07-10T06:04:12;6.45;;;4.97;;
59458;SDS011;45269;43.568;22.244;2022-07-10T06:06:37;6.50;;;5.10;;
59458;SDS011;45269;43.568;22.244;2022-07-10T06:09:02;8.68;;;5.18;;
59458;SDS011;45269;43.568;22.244;2022-07-10T06:11:28;5.57;;;4.97;;
59458;SDS011;45269;43.568;22.244;2022-07-10T06:13:53;5.88;;;4.80;;
59458;SDS011;45269;43.568;22.244;2022-07-10T06:16:19;4.82;;;4.38;;
59458;SDS011;45269;43.568;22.244;2022-07-10T06:18:44;7.03;;;4.40;;
59458;SDS011;45269;43.568;22.244;2022-07-10T06:21:09;7.35;;;4.93;;
59458;SDS011;45269;43.568;22.244;2022-07-10T06:23:34;5.60;;;5.10;;
59458;SDS011;45269;43.568;22.244;2022-07-10T06:26:00;5.63;;;4.60;;
59458;SDS011;45269;43.568;22.244;2022-07-10T06:28:25;5.07;;;4.57;;
59458;SDS011;45269;43.568;22.244;2022-07-10T06:30:51;5.22;;;4.68;;
59458;SDS011;45269;43.568;22.244;2022-07-10T06:33:16;5.35;;;4.43;;
59458;SDS011;45269;43.568;22.244;2022-07-10T06:35:41;5.43;;;4.13;;
59458;SDS011;45269;43.568;22.244;2022-07-10T06:38:08;4.85;;;4.45;;
59458;SDS011;45269;43.568;22.244;2022-07-10T06:40:37;6.15;;;4.35;;
59458;SDS011;45269;43.568;22.244;2022-07-10T06:43:02;4.60;;;4.05;;
59458;SDS011;45269;43.568;22.244;2022-07-10T06:45:28;5.13;;;3.65;;
59458;SDS011;45269;43.568;22.244;2022-07-10T06:47:53;4.53;;;3.75;;
59458;SDS011;45269;43.568;22.244;2022-07-10T06:50:23;3.53;;;3.20;;
59458;SDS011;45269;43.568;22.244;2022-07-10T06:52:49;3.40;;;3.10;;
59458;SDS011;45269;43.568;22.244;2022-07-10T06:55:14;7.28;;;3.33;;
59458;SDS011;45269;43.568;22.244;2022-07-10T06:57:40;6.15;;;3.80;;
59458;SDS011;45269;43.568;22.244;2022-07-10T07:00:06;3.58;;;3.38;;
59458;SDS011;45269;43.568;22.244;2022-07-10T07:02:31;4.22;;;3.45;;
59458;SDS011;45269;43.568;22.244;2022-07-10T07:04:57;4.15;;;3.75;;
59458;SDS011;45269;43.568;22.244;2022-07-10T07:07:22;10.10;;;3.30;;
59458;SDS011;45269;43.568;22.244;2022-07-10T07:09:48;4.72;;;3.42;;
59458;SDS011;45269;43.568;22.244;2022-07-10T07:12:15;6.25;;;3.70;;
59458;SDS011;45269;43.568;22.244;2022-07-10T07:14:41;4.32;;;3.90;;
59458;SDS011;45269;43.568;22.244;2022-07-10T07:17:07;4.68;;;3.42;;
59458;SDS011;45269;43.568;22.244;2022-07-10T07:19:34;4.90;;;3.85;;
59458;SDS011;45269;43.568;22.244;2022-07-10T07:22:18;5.60;;;3.75;;
59458;SDS011;45269;43.568;22.244;2022-07-10T07:25:02;6.07;;;3.35;;
59458;SDS011;45269;43.568;22.244;2022-07-10T07:27:28;4.93;;;3.75;;
59458;SDS011;45269;43.568;22.244;2022-07-10T07:29:54;4.25;;;3.20;;
59458;SDS011;45269;43.568;22.244;2022-07-10T07:32:19;3.60;;;3.30;;
59458;SDS011;45269;43.568;22.244;2022-07-10T07:34:44;3.58;;;3.20;;
59458;SDS011;45269;43.568;22.244;2022-07-10T07:37:10;4.00;;;3.55;;
59458;SDS011;45269;43.568;22.244;2022-07-10T07:39:35;5.43;;;3.35;;
59458;SDS011;45269;43.568;22.244;2022-07-10T07:42:01;3.47;;;2.60;;
59458;SDS011;45269;43.568;22.244;2022-07-10T07:44:27;2.25;;;1.98;;
59458;SDS011;45269;43.568;22.244;2022-07-10T07:46:52;2.83;;;2.42;;
59458;SDS011;45269;43.568;22.244;2022-07-10T07:49:18;3.08;;;2.22;;
59458;SDS011;45269;43.568;22.244;2022-07-10T07:51:43;2.63;;;1.90;;
59458;SDS011;45269;43.568;22.244;2022-07-10T07:54:08;2.25;;;2.05;;
59458;SDS011;45269;43.568;22.244;2022-07-10T07:56:34;3.22;;;1.90;;
59458;SDS011;45269;43.568;22.244;2022-07-10T07:58:59;2.58;;;2.00;;
59458;SDS011;45269;43.568;22.244;2022-07-10T08:01:24;2.70;;;1.83;;
59458;SDS011;45269;43.568;22.244;2022-07-10T08:03:50;2.20;;;1.98;;
59458;SDS011;45269;43.568;22.244;2022-07-10T08:06:15;2.22;;;2.00;;
59458;SDS011;45269;43.568;22.244;2022-07-10T08:08:40;4.55;;;2.05;;
59458;SDS011;45269;43.568;22.244;2022-07-10T08:11:06;2.42;;;1.83;;
59458;SDS011;45269;43.568;22.244;2022-07-10T08:13:31;2.95;;;2.03;;
59458;SDS011;45269;43.568;22.244;2022-07-10T08:15:59;3.85;;;1.95;;
59458;SDS011;45269;43.568;22.244;2022-07-10T08:18:24;6.53;;;2.13;;
59458;SDS011;45269;43.568;22.244;2022-07-10T08:20:49;2.70;;;2.15;;
59458;SDS011;45269;43.568;22.244;2022-07-10T08:23:15;2.08;;;1.88;;
59458;SDS011;45269;43.568;22.244;2022-07-10T08:25:40;3.67;;;1.80;;
59458;SDS011;45269;43.568;22.244;2022-07-10T08:28:06;2.25;;;1.80;;
59458;SDS011;45269;43.568;22.244;2022-07-10T08:30:31;5.90;;;2.22;;
59458;SDS011;45269;43.568;22.244;2022-07-10T08:32:56;3.88;;;2.13;;
59458;SDS011;45269;43.568;22.244;2022-07-10T08:35:22;2.40;;;1.90;;
59458;SDS011;45269;43.568;22.244;2022-07-10T08:37:47;2.03;;;1.70;;
59458;SDS011;45269;43.568;22.244;2022-07-10T08:40:13;2.13;;;1.70;;
59458;SDS011;45269;43.568;22.244;2022-07-10T08:42:39;3.67;;;1.70;;
59458;SDS011;45269;43.568;22.244;2022-07-10T08:45:05;1.95;;;1.70;;
59458;SDS011;45269;43.568;22.244;2022-07-10T08:47:33;3.22;;;1.60;;
59458;SDS011;45269;43.568;22.244;2022-07-10T08:49:59;2.83;;;2.00;;
59458;SDS011;45269;43.568;22.244;2022-07-10T08:54:49;3.00;;;1.65;;
59458;SDS011;45269;43.568;22.244;2022-07-10T08:57:15;1.90;;;1.80;;
59458;SDS011;45269;43.568;22.244;2022-07-10T08:59:41;2.58;;;2.10;;
59458;SDS011;45269;43.568;22.244;2022-07-10T09:02:06;2.00;;;1.70;;
59458;SDS011;45269;43.568;22.244;2022-07-10T09:04:31;2.85;;;1.90;;
59458;SDS011;45269;43.568;22.244;2022-07-10T09:06:57;3.22;;;1.70;;
59458;SDS011;45269;43.568;22.244;2022-07-10T09:09:22;2.50;;;1.70;;
59458;SDS011;45269;43.568;22.244;2022-07-10T09:11:54;3.83;;;1.85;;
59458;SDS011;45269;43.568;22.244;2022-07-10T09:14:19;2.20;;;1.80;;
59458;SDS011;45269;43.568;22.244;2022-07-10T09:16:49;2.15;;;1.40;;
59458;SDS011;45269;43.568;22.244;2022-07-10T09:21:47;2.42;;;1.70;;
59458;SDS011;45269;43.568;22.244;2022-07-10T09:24:13;1.48;;;1.38;;
59458;SDS011;45269;43.568;22.244;2022-07-10T09:26:39;2.53;;;1.20;;
59458;SDS011;45269;43.568;22.244;2022-07-10T09:29:06;1.65;;;1.52;;
59458;SDS011;45269;43.568;22.244;2022-07-10T09:31:47;1.55;;;1.42;;
59458;SDS011;45269;43.568;22.244;2022-07-10T09:34:13;2.50;;;1.90;;
59458;SDS011;45269;43.568;22.244;2022-07-10T09:36:38;3.30;;;1.55;;
59458;SDS011;45269;43.568;22.244;2022-07-10T09:39:03;2.00;;;1.55;;
59458;SDS011;45269;43.568;22.244;2022-07-10T09:41:30;2.45;;;1.63;;
59458;SDS011;45269;43.568;22.244;2022-07-10T09:44:00;1.80;;;1.50;;
59458;SDS011;45269;43.568;22.244;2022-07-10T09:46:27;2.05;;;1.58;;
59458;SDS011;45269;43.568;22.244;2022-07-10T09:51:29;1.80;;;1.60;;
59458;SDS011;45269;43.568;22.244;2022-07-10T09:53:55;1.73;;;1.63;;
59458;SDS011;45269;43.568;22.244;2022-07-10T09:56:20;3.65;;;2.03;;
59458;SDS011;45269;43.568;22.244;2022-07-10T09:58:46;2.58;;;1.70;;
59458;SDS011;45269;43.568;22.244;2022-07-10T10:01:16;2.53;;;1.70;;
59458;SDS011;45269;43.568;22.244;2022-07-10T10:03:42;1.60;;;1.50;;
59458;SDS011;45269;43.568;22.244;2022-07-10T10:06:10;2.90;;;1.73;;
59458;SDS011;45269;43.568;22.244;2022-07-10T10:11:01;1.85;;;1.42;;
59458;SDS011;45269;43.568;22.244;2022-07-10T10:13:27;1.65;;;1.50;;
59458;SDS011;45269;43.568;22.244;2022-07-10T10:15:53;2.15;;;1.35;;
59458;SDS011;45269;43.568;22.244;2022-07-10T10:18:25;3.22;;;1.95;;
59458;SDS011;45269;43.568;22.244;2022-07-10T10:20:54;2.40;;;1.80;;
59458;SDS011;45269;43.568;22.244;2022-07-10T10:23:21;3.00;;;1.70;;
59458;SDS011;45269;43.568;22.244;2022-07-10T10:25:47;1.60;;;1.50;;
59458;SDS011;45269;43.568;22.244;2022-07-10T10:28:13;2.13;;;1.92;;
59458;SDS011;45269;43.568;22.244;2022-07-10T10:30:42;2.60;;;1.70;;
59458;SDS011;45269;43.568;22.244;2022-07-10T10:35:52;1.92;;;1.58;;
59458;SDS011;45269;43.568;22.244;2022-07-10T10:38:17;2.75;;;2.25;;
59458;SDS011;45269;43.568;22.244;2022-07-10T10:40:43;2.05;;;1.38;;
59458;SDS011;45269;43.568;22.244;2022-07-10T10:45:46;3.58;;;1.40;;
59458;SDS011;45269;43.568;22.244;2022-07-10T10:48:12;1.30;;;1.20;;
59458;SDS011;45269;43.568;22.244;2022-07-10T10:53:04;2.90;;;1.30;;
59458;SDS011;45269;43.568;22.244;2022-07-10T10:55:29;1.65;;;1.55;;
59458;SDS011;45269;43.568;22.244;2022-07-10T10:57:54;1.45;;;1.35;;
59458;SDS011;45269;43.568;22.244;2022-07-10T11:00:36;4.28;;;1.52;;
59458;SDS011;45269;43.568;22.244;2022-07-10T11:03:19;2.42;;;1.55;;
59458;SDS011;45269;43.568;22.244;2022-07-10T11:05:45;1.58;;;1.45;;
59458;SDS011;45269;43.568;22.244;2022-07-10T11:08:11;1.42;;;1.33;;
59458;SDS011;45269;43.568;22.244;2022-07-10T11:10:41;2.50;;;1.60;;
59458;SDS011;45269;43.568;22.244;2022-07-10T11:15:35;1.70;;;1.58;;
59458;SDS011;45269;43.568;22.244;2022-07-10T11:18:05;1.80;;;1.45;;
59458;SDS011;45269;43.568;22.244;2022-07-10T11:20:31;3.60;;;1.60;;
59458;SDS011;45269;43.568;22.244;2022-07-10T11:25:36;1.80;;;1.45;;
59458;SDS011;45269;43.568;22.244;2022-07-10T11:28:08;1.75;;;1.30;;
59458;SDS011;45269;43.568;22.244;2022-07-10T11:30:44;1.80;;;1.30;;
59458;SDS011;45269;43.568;22.244;2022-07-10T11:33:09;1.73;;;1.48;;
59458;SDS011;45269;43.568;22.244;2022-07-10T11:35:35;2.35;;;1.70;;
59458;SDS011;45269;43.568;22.244;2022-07-10T11:38:01;2.75;;;1.63;;
59458;SDS011;45269;43.568;22.244;2022-07-10T11:40:26;1.80;;;1.70;;
59458;SDS011;45269;43.568;22.244;2022-07-10T11:42:55;1.45;;;1.35;;
59458;SDS011;45269;43.568;22.244;2022-07-10T11:45:27;1.52;;;1.40;;
59458;SDS011;45269;43.568;22.244;2022-07-10T11:47:53;2.60;;;1.80;;
59458;SDS011;45269;43.568;22.244;2022-07-10T11:50:19;2.05;;;1.85;;
59458;SDS011;45269;43.568;22.244;2022-07-10T11:52:45;2.80;;;1.75;;
59458;SDS011;45269;43.568;22.244;2022-07-10T11:55:15;2.10;;;1.92;;
59458;SDS011;45269;43.568;22.244;2022-07-10T11:57:41;2.28;;;2.08;;
59458;SDS011;45269;43.568;22.244;2022-07-10T12:00:06;3.97;;;2.10;;
59458;SDS011;45269;43.568;22.244;2022-07-10T12:02:32;2.53;;;1.90;;
59458;SDS011;45269;43.568;22.244;2022-07-10T12:04:58;1.85;;;1.73;;
59458;SDS011;45269;43.568;22.244;2022-07-10T12:07:23;2.33;;;1.90;;
59458;SDS011;45269;43.568;22.244;2022-07-10T12:09:54;2.50;;;1.95;;
59458;SDS011;45269;43.568;22.244;2022-07-10T12:12:22;2.13;;;1.90;;
59458;SDS011;45269;43.568;22.244;2022-07-10T12:14:48;2.35;;;1.80;;
59458;SDS011;45269;43.568;22.244;2022-07-10T12:17:13;2.17;;;1.92;;
59458;SDS011;45269;43.568;22.244;2022-07-10T12:19:38;2.85;;;1.90;;
59458;SDS011;45269;43.568;22.244;2022-07-10T12:22:04;1.80;;;1.65;;
59458;SDS011;45269;43.568;22.244;2022-07-10T12:24:30;2.08;;;1.65;;
59458;SDS011;45269;43.568;22.244;2022-07-10T12:26:55;2.15;;;1.73;;
59458;SDS011;45269;43.568;22.244;2022-07-10T12:29:22;2.28;;;2.03;;
59458;SDS011;45269;43.568;22.244;2022-07-10T12:31:48;3.72;;;2.00;;
59458;SDS011;45269;43.568;22.244;2022-07-10T12:34:14;2.97;;;1.95;;
59458;SDS011;45269;43.568;22.244;2022-07-10T12:36:50;2.00;;;1.80;;
59458;SDS011;45269;43.568;22.244;2022-07-10T12:39:22;3.75;;;1.83;;
59458;SDS011;45269;43.568;22.244;2022-07-10T12:45:06;1.65;;;1.45;;
59458;SDS011;45269;43.568;22.244;2022-07-10T12:47:15;1.88;;;1.70;;
59458;SDS011;45269;43.568;22.244;2022-07-10T12:49:50;1.60;;;1.50;;
59458;SDS011;45269;43.568;22.244;2022-07-10T12:52:19;1.50;;;1.40;;
59458;SDS011;45269;43.568;22.244;2022-07-10T12:57:10;2.33;;;1.50;;
59458;SDS011;45269;43.568;22.244;2022-07-10T12:59:36;2.00;;;1.85;;
59458;SDS011;45269;43.568;22.244;2022-07-10T13:02:20;2.95;;;1.55;;
59458;SDS011;45269;43.568;22.244;2022-07-10T13:04:53;2.92;;;1.48;;
59458;SDS011;45269;43.568;22.244;2022-07-10T13:07:18;1.48;;;1.38;;
59458;SDS011;45269;43.568;22.244;2022-07-10T13:09:46;2.03;;;1.58;;
59458;SDS011;45269;43.568;22.244;2022-07-10T13:12:15;1.67;;;1.58;;
59458;SDS011;45269;43.568;22.244;2022-07-10T13:14:40;1.45;;;1.25;;
59458;SDS011;45269;43.568;22.244;2022-07-10T13:17:06;1.48;;;1.38;;
59458;SDS011;45269;43.568;22.244;2022-07-10T13:19:31;2.08;;;1.52;;
59458;SDS011;45269;43.568;22.244;2022-07-10T13:21:56;1.80;;;1.70;;
59458;SDS011;45269;43.568;22.244;2022-07-10T13:24:22;1.65;;;1.55;;
59458;SDS011;45269;43.568;22.244;2022-07-10T13:26:48;3.00;;;1.58;;
59458;SDS011;45269;43.568;22.244;2022-07-10T13:29:13;3.35;;;1.38;;
59458;SDS011;45269;43.568;22.244;2022-07-10T13:31:38;2.88;;;1.35;;
59458;SDS011;45269;43.568;22.244;2022-07-10T13:34:04;1.60;;;1.50;;
59458;SDS011;45269;43.568;22.244;2022-07-10T13:36:29;1.60;;;1.30;;
59458;SDS011;45269;43.568;22.244;2022-07-10T13:38:55;4.07;;;1.80;;
59458;SDS011;45269;43.568;22.244;2022-07-10T13:41:20;2.05;;;1.40;;
59458;SDS011;45269;43.568;22.244;2022-07-10T13:43:46;2.33;;;1.80;;
59458;SDS011;45269;43.568;22.244;2022-07-10T13:46:11;2.50;;;2.30;;
59458;SDS011;45269;43.568;22.244;2022-07-10T13:48:37;5.03;;;2.03;;
59458;SDS011;45269;43.568;22.244;2022-07-10T13:51:02;3.00;;;1.35;;
59458;SDS011;45269;43.568;22.244;2022-07-10T13:53:28;1.70;;;1.60;;
59458;SDS011;45269;43.568;22.244;2022-07-10T13:55:53;2.13;;;1.63;;
59458;SDS011;45269;43.568;22.244;2022-07-10T13:58:19;2.60;;;2.00;;
59458;SDS011;45269;43.568;22.244;2022-07-10T14:00:45;3.38;;;1.90;;
59458;SDS011;45269;43.568;22.244;2022-07-10T14:03:11;2.78;;;2.55;;
59458;SDS011;45269;43.568;22.244;2022-07-10T14:05:36;2.47;;;1.90;;
59458;SDS011;45269;43.568;22.244;2022-07-10T14:08:02;3.15;;;2.05;;
59458;SDS011;45269;43.568;22.244;2022-07-10T14:10:28;1.85;;;1.52;;
59458;SDS011;45269;43.568;22.244;2022-07-10T14:12:53;1.80;;;1.45;;
59458;SDS011;45269;43.568;22.244;2022-07-10T14:15:19;1.70;;;1.52;;
59458;SDS011;45269;43.568;22.244;2022-07-10T14:17:44;2.90;;;2.20;;
59458;SDS011;45269;43.568;22.244;2022-07-10T14:20:10;3.63;;;1.63;;
59458;SDS011;45269;43.568;22.244;2022-07-10T14:22:35;2.00;;;1.40;;
59458;SDS011;45269;43.568;22.244;2022-07-10T14:25:01;1.58;;;1.20;;
59458;SDS011;45269;43.568;22.244;2022-07-10T14:27:26;4.43;;;1.80;;
59458;SDS011;45269;43.568;22.244;2022-07-10T14:29:56;2.13;;;1.50;;
59458;SDS011;45269;43.568;22.244;2022-07-10T14:32:22;1.33;;;1.23;;
59458;SDS011;45269;43.568;22.244;2022-07-10T14:34:47;2.47;;;1.33;;
59458;SDS011;45269;43.568;22.244;2022-07-10T14:37:13;1.70;;;1.20;;
59458;SDS011;45269;43.568;22.244;2022-07-10T14:39:38;1.25;;;1.20;;
59458;SDS011;45269;43.568;22.244;2022-07-10T14:42:04;1.52;;;1.30;;
59458;SDS011;45269;43.568;22.244;2022-07-10T14:44:35;1.40;;;1.30;;
59458;SDS011;45269;43.568;22.244;2022-07-10T14:47:01;2.05;;;1.83;;
59458;SDS011;45269;43.568;22.244;2022-07-10T14:49:26;1.40;;;1.30;;
59458;SDS011;45269;43.568;22.244;2022-07-10T14:51:51;1.33;;;1.23;;